createdAt,value
2018-12-18T00:00:56.859Z,6.42
2018-12-18T00:03:27.504Z,6.40
2018-12-18T00:05:58.184Z,5.60
2018-12-18T00:08:27.413Z,4.97
2018-12-18T00:11:04.808Z,5.27
2018-12-18T00:13:34.636Z,5.57
2018-12-18T00:16:03.481Z,5.93
2018-12-18T00:18:32.176Z,5.63
2018-12-18T00:21:00.985Z,6.20
2018-12-18T00:23:29.791Z,5.70
2018-12-18T00:25:58.590Z,6.03
2018-12-18T00:28:27.280Z,6.00
2018-12-18T00:30:55.988Z,6.90
2018-12-18T00:33:24.752Z,5.47
2018-12-18T00:35:53.504Z,7.13
2018-12-18T00:38:22.454Z,6.33
2018-12-18T00:40:51.310Z,5.40
2018-12-18T00:43:21.079Z,6.57
2018-12-18T00:45:50.090Z,6.77
2018-12-18T00:48:18.780Z,5.63
2018-12-18T00:50:47.468Z,6.73
2018-12-18T00:53:16.263Z,6.53
2018-12-18T00:55:45.118Z,6.07
2018-12-18T00:58:13.888Z,5.70
2018-12-18T01:00:42.660Z,6.50
2018-12-18T01:03:11.468Z,7.47
2018-12-18T01:05:40.233Z,7.03
2018-12-18T01:08:08.988Z,5.45
2018-12-18T01:10:37.792Z,6.83
2018-12-18T01:13:06.521Z,6.40
2018-12-18T01:15:35.471Z,7.03
2018-12-18T01:18:04.341Z,6.87
2018-12-18T01:20:33.087Z,5.97
2018-12-18T01:23:01.781Z,6.87
2018-12-18T01:25:30.636Z,6.37
2018-12-18T01:27:59.327Z,5.63
2018-12-18T01:30:28.081Z,6.00
2018-12-18T01:32:56.798Z,5.53
2018-12-18T01:35:25.548Z,7.30
2018-12-18T01:37:54.365Z,6.83
2018-12-18T01:40:23.197Z,5.72
2018-12-18T01:42:51.998Z,7.13
2018-12-18T01:45:20.684Z,5.90
2018-12-18T01:47:49.504Z,5.63
2018-12-18T01:50:18.268Z,6.85
2018-12-18T01:52:46.996Z,6.83
2018-12-18T01:55:15.748Z,6.17
2018-12-18T01:57:44.468Z,5.80
2018-12-18T02:00:13.304Z,6.08
2018-12-18T02:02:42.080Z,6.53
2018-12-18T02:05:10.868Z,6.42
2018-12-18T02:07:39.776Z,7.60
2018-12-18T02:10:08.577Z,7.10
2018-12-18T02:12:37.268Z,6.97
2018-12-18T02:15:06.170Z,6.22
2018-12-18T02:17:35.905Z,7.63
2018-12-18T02:20:05.713Z,6.77
2018-12-18T02:22:34.441Z,8.23
2018-12-18T02:25:03.622Z,6.90
2018-12-18T02:27:32.348Z,6.80
2018-12-18T02:30:01.118Z,7.20
2018-12-18T02:32:30.185Z,6.30
2018-12-18T02:34:59.278Z,6.35
2018-12-18T02:37:28.041Z,7.57
2018-12-18T02:39:56.868Z,7.27
2018-12-18T02:42:25.663Z,6.73
2018-12-18T02:44:56.332Z,6.90
2018-12-18T02:47:25.092Z,7.07
2018-12-18T02:49:53.797Z,6.87
2018-12-18T02:52:22.660Z,6.90
2018-12-18T02:54:51.441Z,7.10
2018-12-18T02:57:21.294Z,6.40
2018-12-18T02:59:50.893Z,7.07
2018-12-18T03:02:19.589Z,7.83
2018-12-18T03:04:48.292Z,7.40
2018-12-18T03:07:17.124Z,7.92
2018-12-18T03:09:45.920Z,7.40
2018-12-18T03:12:14.686Z,7.50
2018-12-18T03:14:43.400Z,6.47
2018-12-18T03:17:12.165Z,7.00
2018-12-18T03:19:40.873Z,7.30
2018-12-18T03:22:09.574Z,7.27
2018-12-18T03:24:38.441Z,7.07
2018-12-18T03:27:07.325Z,7.93
2018-12-18T03:29:36.113Z,5.97
2018-12-18T03:32:09.898Z,6.63
2018-12-18T03:34:38.728Z,6.60
2018-12-18T03:37:07.494Z,8.20
2018-12-18T03:39:36.256Z,6.92
2018-12-18T03:42:05.081Z,7.50
2018-12-18T03:44:33.897Z,7.10
2018-12-18T03:47:02.709Z,6.97
2018-12-18T03:49:31.573Z,7.37
2018-12-18T03:52:00.365Z,7.93
2018-12-18T03:54:29.134Z,8.10
2018-12-18T03:56:57.900Z,7.57
2018-12-18T03:59:26.677Z,7.17
2018-12-18T04:01:55.542Z,8.20
2018-12-18T04:04:24.333Z,7.75
2018-12-18T04:06:53.142Z,8.17
2018-12-18T04:09:22.084Z,7.85
2018-12-18T04:11:56.392Z,7.17
2018-12-18T04:14:25.119Z,7.17
2018-12-18T04:16:53.944Z,6.73
2018-12-18T04:19:22.719Z,7.10
2018-12-18T04:21:51.511Z,7.63
2018-12-18T04:24:20.221Z,7.70
2018-12-18T04:26:49.060Z,7.03
2018-12-18T04:29:17.890Z,6.78
2018-12-18T04:31:46.673Z,6.37
2018-12-18T04:34:15.404Z,7.73
2018-12-18T04:36:44.096Z,8.03
2018-12-18T04:39:12.820Z,7.47
2018-12-18T04:41:41.733Z,7.20
2018-12-18T04:44:10.453Z,8.20
2018-12-18T04:46:39.362Z,6.25
2018-12-18T04:49:08.178Z,7.63
2018-12-18T04:51:36.868Z,5.97
2018-12-18T04:54:05.664Z,7.53
2018-12-18T04:56:34.392Z,7.60
2018-12-18T04:59:03.175Z,7.85
2018-12-18T05:01:31.960Z,7.33
2018-12-18T05:04:00.707Z,8.60
2018-12-18T05:06:29.495Z,8.83
2018-12-18T05:08:58.206Z,7.50
2018-12-18T05:11:26.918Z,8.13
2018-12-18T05:13:55.620Z,8.03
2018-12-18T05:16:24.335Z,8.37
2018-12-18T05:18:53.188Z,7.97
2018-12-18T05:21:21.960Z,8.80
2018-12-18T05:23:50.680Z,7.77
2018-12-18T05:26:19.540Z,6.67
2018-12-18T05:28:48.371Z,7.43
2018-12-18T05:31:17.232Z,7.23
2018-12-18T05:33:45.937Z,6.10
2018-12-18T05:36:14.681Z,7.90
2018-12-18T05:38:43.443Z,7.27
2018-12-18T05:41:12.211Z,8.05
2018-12-18T05:43:40.965Z,7.20
2018-12-18T05:46:09.748Z,8.00
2018-12-18T05:48:38.457Z,7.43
2018-12-18T05:51:07.249Z,8.43
2018-12-18T05:53:35.948Z,8.18
2018-12-18T05:56:04.816Z,7.33
2018-12-18T05:58:33.500Z,6.67
2018-12-18T06:01:02.306Z,7.90
2018-12-18T06:03:32.001Z,7.10
2018-12-18T06:06:00.716Z,7.83
2018-12-18T06:08:29.509Z,7.03
2018-12-18T06:10:58.281Z,6.83
2018-12-18T06:13:26.988Z,7.22
2018-12-18T06:15:56.757Z,7.63
2018-12-18T06:18:25.493Z,6.97
2018-12-18T06:20:54.484Z,7.67
2018-12-18T06:23:23.200Z,8.93
2018-12-18T06:25:52.065Z,8.30
2018-12-18T06:28:20.760Z,6.80
2018-12-18T06:30:49.502Z,7.77
2018-12-18T06:33:18.269Z,8.30
2018-12-18T06:35:47.058Z,7.10
2018-12-18T06:38:15.759Z,8.63
2018-12-18T06:40:44.464Z,6.67
2018-12-18T06:43:13.231Z,7.00
2018-12-18T06:45:41.941Z,7.17
2018-12-18T06:48:11.681Z,7.93
2018-12-18T06:50:40.488Z,8.67
2018-12-18T06:53:09.199Z,7.17
2018-12-18T06:55:38.055Z,7.60
2018-12-18T06:58:06.909Z,7.97
2018-12-18T07:00:35.764Z,7.10
2018-12-18T07:03:04.541Z,8.10
2018-12-18T07:05:33.261Z,7.73
2018-12-18T07:08:02.327Z,7.75
2018-12-18T07:10:31.275Z,6.67
2018-12-18T07:13:00.249Z,6.33
2018-12-18T07:15:29.020Z,7.40
2018-12-18T07:17:58.168Z,6.53
2018-12-18T07:20:26.897Z,6.17
2018-12-18T07:22:55.705Z,7.73
2018-12-18T07:25:24.476Z,7.67
2018-12-18T07:27:53.441Z,7.30
2018-12-18T07:30:22.675Z,7.87
2018-12-18T07:32:51.588Z,7.53
2018-12-18T07:35:23.265Z,6.63
2018-12-18T07:37:51.062Z,6.57
2018-12-18T07:40:19.904Z,7.77
2018-12-18T07:42:48.668Z,7.13
2018-12-18T07:45:17.444Z,7.93
2018-12-18T07:47:46.230Z,7.73
2018-12-18T07:50:15.060Z,7.73
2018-12-18T07:52:43.836Z,7.57
2018-12-18T07:55:12.698Z,6.57
2018-12-18T07:57:41.480Z,8.20
2018-12-18T08:00:10.525Z,6.90
2018-12-18T08:02:39.249Z,9.20
2018-12-18T08:05:08.049Z,7.17
2018-12-18T08:07:36.904Z,8.37
2018-12-18T08:10:06.069Z,6.73
2018-12-18T08:12:35.035Z,7.03
2018-12-18T08:15:04.261Z,12.23
2018-12-18T08:17:33.453Z,16.73
2018-12-18T08:20:02.217Z,8.80
2018-12-18T08:22:31.158Z,30.60
2018-12-18T08:24:59.872Z,9.53
2018-12-18T08:27:29.299Z,8.93
2018-12-18T08:29:58.024Z,7.50
2018-12-18T08:32:26.891Z,8.37
2018-12-18T08:34:55.569Z,10.10
2018-12-18T08:37:24.425Z,24.02
2018-12-18T08:39:53.128Z,8.98
2018-12-18T08:42:22.340Z,7.87
2018-12-18T08:44:51.265Z,7.33
2018-12-18T08:47:20.028Z,6.65
2018-12-18T08:49:48.956Z,7.77
2018-12-18T08:52:17.768Z,6.40
2018-12-18T08:54:46.500Z,7.70
2018-12-18T08:57:15.272Z,6.67
2018-12-18T08:59:44.014Z,18.73
2018-12-18T09:02:12.853Z,6.93
2018-12-18T09:04:41.737Z,6.37
2018-12-18T09:07:10.504Z,5.97
2018-12-18T09:14:52.917Z,7.20
2018-12-18T09:17:27.286Z,7.00
2018-12-18T09:19:56.080Z,6.10
2018-12-18T09:22:24.924Z,5.93
2018-12-18T09:24:53.629Z,6.13
2018-12-18T09:27:22.498Z,7.37
2018-12-18T09:29:51.288Z,6.57
2018-12-18T09:32:20.796Z,6.83
2018-12-18T09:34:49.481Z,6.40
2018-12-18T09:37:18.179Z,7.87
2018-12-18T09:39:47.396Z,7.30
2018-12-18T09:42:21.674Z,6.07
2018-12-18T09:44:50.476Z,5.83
2018-12-18T09:47:19.321Z,5.37
2018-12-18T09:49:48.097Z,5.72
2018-12-18T09:52:17.137Z,6.08
2018-12-18T09:54:46.297Z,6.83
2018-12-18T09:58:19.656Z,6.17
2018-12-18T10:00:48.416Z,5.67
2018-12-18T10:03:17.270Z,4.77
2018-12-18T10:05:46.096Z,6.53
2018-12-18T10:08:14.820Z,6.00
2018-12-18T10:10:43.681Z,5.13
2018-12-18T10:13:12.457Z,5.20
2018-12-18T10:15:41.191Z,5.43
2018-12-18T10:18:10.008Z,5.47
2018-12-18T10:20:38.713Z,5.93
2018-12-18T10:23:07.525Z,5.73
2018-12-18T10:25:36.301Z,5.30
2018-12-18T10:28:05.108Z,5.90
2018-12-18T10:30:33.904Z,6.17
2018-12-18T10:33:02.825Z,5.57
2018-12-18T10:35:36.517Z,5.70
2018-12-18T10:38:02.508Z,6.00
2018-12-18T10:40:31.378Z,6.00
2018-12-18T10:43:00.173Z,5.60
2018-12-18T10:45:30.728Z,5.83
2018-12-18T10:47:59.476Z,4.30
2018-12-18T10:50:28.201Z,5.63
2018-12-18T10:52:57.143Z,5.63
2018-12-18T10:55:26.227Z,5.70
2018-12-18T10:57:55.073Z,5.80
2018-12-18T11:00:29.307Z,5.70
2018-12-18T11:02:58.088Z,5.03
2018-12-18T11:05:26.934Z,6.27
2018-12-18T11:07:55.747Z,5.87
2018-12-18T11:10:24.596Z,5.47
2018-12-18T11:12:58.902Z,5.03
2018-12-18T11:15:27.672Z,5.03
2018-12-18T11:17:56.491Z,4.87
2018-12-18T11:20:25.223Z,4.90
2018-12-18T11:22:54.034Z,5.95
2018-12-18T11:25:23.533Z,6.20
2018-12-18T11:27:52.389Z,5.73
2018-12-18T11:30:21.238Z,5.08
2018-12-18T11:32:49.945Z,5.53
2018-12-18T11:35:18.729Z,6.17
2018-12-18T11:37:47.496Z,5.30
2018-12-18T11:40:16.260Z,5.33
2018-12-18T11:42:45.069Z,5.80
2018-12-18T11:45:13.836Z,4.33
2018-12-18T11:47:42.680Z,4.93
2018-12-18T11:50:11.628Z,5.30
2018-12-18T11:52:40.545Z,4.50
2018-12-18T11:55:09.272Z,5.33
2018-12-18T11:57:38.088Z,5.95
2018-12-18T12:00:10.296Z,8.00
2018-12-18T12:02:42.804Z,5.37
2018-12-18T12:05:12.055Z,6.10
2018-12-18T12:07:40.833Z,5.77
2018-12-18T12:10:09.696Z,4.73
2018-12-18T12:12:38.780Z,4.67
2018-12-18T12:15:07.621Z,6.63
2018-12-18T12:17:36.728Z,5.93
2018-12-18T12:20:05.832Z,5.23
2018-12-18T12:22:34.621Z,5.93
2018-12-18T12:25:03.496Z,5.30
2018-12-18T12:27:33.545Z,5.65
2018-12-18T12:30:02.329Z,5.37
2018-12-18T12:32:32.252Z,7.35
2018-12-18T12:35:01.037Z,5.23
2018-12-18T12:37:29.903Z,5.33
2018-12-18T12:39:58.616Z,5.33
2018-12-18T12:42:27.385Z,4.50
2018-12-18T12:44:56.193Z,4.70
2018-12-18T12:47:24.968Z,4.83
2018-12-18T12:49:53.693Z,3.93
2018-12-18T12:52:22.388Z,4.67
2018-12-18T12:54:51.097Z,4.70
2018-12-18T12:57:19.924Z,5.07
2018-12-18T12:59:48.633Z,4.70
2018-12-18T13:02:17.540Z,5.50
2018-12-18T13:04:46.348Z,6.25
2018-12-18T13:07:15.049Z,7.47
2018-12-18T13:09:43.837Z,7.27
2018-12-18T13:12:12.605Z,7.80
2018-12-18T13:14:41.413Z,7.43
2018-12-18T13:17:10.188Z,6.45
2018-12-18T13:19:39.130Z,5.17
2018-12-18T13:22:07.875Z,5.60
2018-12-18T13:24:36.630Z,5.20
2018-12-18T13:27:05.441Z,4.70
2018-12-18T13:29:35.525Z,5.33
2018-12-18T13:32:05.720Z,5.60
2018-12-18T13:34:34.420Z,5.03
2018-12-18T13:37:03.192Z,5.53
2018-12-18T13:39:31.958Z,5.13
2018-12-18T13:42:00.718Z,5.80
2018-12-18T13:44:29.421Z,4.87
2018-12-18T13:46:58.195Z,4.60
2018-12-18T13:49:26.968Z,5.20
2018-12-18T13:51:56.693Z,5.17
2018-12-18T13:54:25.402Z,4.70
2018-12-18T13:56:54.267Z,5.23
2018-12-18T13:59:23.070Z,5.60
2018-12-18T14:01:51.839Z,5.73
2018-12-18T14:04:20.541Z,5.30
2018-12-18T14:06:49.826Z,6.20
2018-12-18T14:09:18.681Z,5.83
2018-12-18T14:11:47.453Z,5.40
2018-12-18T14:14:16.172Z,5.40
2018-12-18T14:16:44.928Z,5.30
2018-12-18T14:19:13.712Z,4.33
2018-12-18T14:21:42.481Z,4.77
2018-12-18T14:24:11.185Z,4.30
2018-12-18T14:26:40.033Z,5.60
2018-12-18T14:29:08.894Z,6.00
2018-12-18T14:31:37.728Z,5.33
2018-12-18T14:34:06.500Z,5.77
2018-12-18T14:36:35.306Z,5.78
2018-12-18T14:39:07.098Z,4.78
2018-12-18T14:41:37.737Z,4.60
2018-12-18T14:44:06.513Z,4.17
2018-12-18T14:46:35.342Z,3.72
2018-12-18T14:49:04.177Z,4.60
2018-12-18T14:51:32.873Z,4.33
2018-12-18T14:54:01.580Z,4.40
2018-12-18T14:56:30.354Z,4.87
2018-12-18T14:58:59.069Z,4.80
2018-12-18T15:01:27.845Z,5.70
2018-12-18T15:03:56.628Z,5.87
2018-12-18T15:06:25.457Z,5.83
2018-12-18T15:08:54.247Z,6.40
2018-12-18T15:11:23.008Z,5.40
2018-12-18T15:13:51.780Z,6.00
2018-12-18T15:16:20.493Z,6.80
2018-12-18T15:18:49.229Z,5.23
2018-12-18T15:21:17.961Z,7.37
2018-12-18T15:23:48.352Z,6.37
2018-12-18T15:26:18.093Z,5.72
2018-12-18T15:28:46.860Z,5.57
2018-12-18T15:31:15.700Z,6.00
2018-12-18T15:33:45.517Z,7.53
2018-12-18T15:36:14.288Z,7.23
2018-12-18T15:38:42.980Z,5.27
2018-12-18T15:41:11.829Z,6.07
2018-12-18T15:43:40.573Z,7.87
2018-12-18T15:46:09.394Z,6.95
2018-12-18T15:48:38.600Z,6.83
2018-12-18T15:51:07.392Z,5.40
2018-12-18T15:53:36.101Z,6.90
2018-12-18T15:56:05.133Z,6.00
2018-12-18T15:58:33.917Z,6.03
2018-12-18T16:01:02.701Z,5.20
2018-12-18T16:03:31.508Z,4.80
2018-12-18T16:06:00.245Z,5.83
2018-12-18T16:08:28.936Z,4.87
2018-12-18T16:10:57.715Z,5.77
2018-12-18T16:13:26.480Z,6.22
2018-12-18T16:15:56.188Z,6.58
2018-12-18T16:18:25.024Z,9.93
2018-12-18T16:20:53.761Z,15.13
2018-12-18T16:23:22.474Z,8.80
2018-12-18T16:25:51.189Z,8.37
2018-12-18T16:28:19.961Z,8.47
2018-12-18T16:30:48.765Z,8.57
2018-12-18T16:33:17.536Z,7.87
2018-12-18T16:35:46.519Z,8.37
2018-12-18T16:38:15.445Z,8.43
2018-12-18T16:40:44.250Z,8.73
2018-12-18T16:43:12.952Z,8.70
2018-12-18T16:45:41.747Z,10.50
2018-12-18T16:48:10.488Z,10.82
2018-12-18T16:50:39.211Z,9.00
2018-12-18T16:53:08.028Z,9.00
2018-12-18T16:55:36.840Z,9.70
2018-12-18T16:58:05.586Z,9.30
2018-12-18T17:00:34.300Z,7.40
2018-12-18T17:03:03.165Z,8.70
2018-12-18T17:05:31.920Z,11.00
2018-12-18T17:08:00.769Z,11.20
2018-12-18T17:10:29.661Z,12.37
2018-12-18T17:12:58.708Z,12.33
2018-12-18T17:15:27.641Z,8.93
2018-12-18T17:17:56.398Z,7.10
2018-12-18T17:20:25.205Z,6.77
2018-12-18T17:22:54.009Z,8.30
2018-12-18T17:25:23.483Z,9.80
2018-12-18T17:27:52.368Z,8.57
2018-12-18T17:30:21.092Z,9.73
2018-12-18T17:32:49.981Z,8.20
2018-12-18T17:35:18.862Z,7.00
2018-12-18T17:37:47.571Z,6.90
2018-12-18T17:40:16.348Z,8.10
2018-12-18T17:42:45.169Z,12.88
2018-12-18T17:45:14.057Z,19.10
2018-12-18T17:47:42.924Z,11.93
2018-12-18T17:50:11.700Z,12.10
2018-12-18T17:52:40.460Z,8.63
2018-12-18T17:55:09.193Z,7.30
2018-12-18T17:57:38.096Z,7.63
2018-12-18T18:00:07.601Z,9.87
2018-12-18T18:02:36.447Z,10.03
2018-12-18T18:05:05.296Z,10.08
2018-12-18T18:07:34.400Z,9.55
2018-12-18T18:10:03.518Z,10.10
2018-12-18T18:12:32.310Z,9.53
2018-12-18T18:15:01.060Z,10.43
2018-12-18T18:17:29.881Z,11.90
2018-12-18T18:19:58.688Z,12.30
2018-12-18T18:22:27.528Z,11.20
2018-12-18T18:24:56.036Z,11.93
2018-12-18T18:27:24.912Z,8.77
2018-12-18T18:29:53.649Z,10.87
2018-12-18T18:32:22.473Z,12.10
2018-12-18T18:34:51.305Z,10.33
2018-12-18T18:37:20.024Z,10.38
2018-12-18T18:39:48.897Z,12.03
2018-12-18T18:42:17.616Z,13.67
2018-12-18T18:44:46.886Z,14.27
2018-12-18T18:47:15.660Z,13.53
2018-12-18T18:49:45.409Z,9.57
2018-12-18T18:52:15.236Z,9.93
2018-12-18T18:54:43.944Z,9.73
2018-12-18T18:57:13.625Z,10.20
2018-12-18T18:59:42.133Z,11.30
2018-12-18T19:02:10.924Z,9.53
2018-12-18T19:04:40.664Z,10.70
2018-12-18T19:07:09.452Z,9.90
2018-12-18T19:09:38.724Z,10.90
2018-12-18T19:12:07.382Z,7.73
2018-12-18T19:14:36.112Z,9.70
2018-12-18T19:17:05.010Z,10.70
2018-12-18T19:19:33.818Z,10.33
2018-12-18T19:22:02.642Z,11.40
2018-12-18T19:24:31.377Z,11.40
2018-12-18T19:27:00.097Z,9.37
2018-12-18T19:29:29.520Z,10.63
2018-12-18T19:31:58.240Z,12.03
2018-12-18T19:34:26.976Z,12.07
2018-12-18T19:36:56.048Z,14.60
2018-12-18T19:39:25.965Z,9.23
2018-12-18T19:41:54.788Z,10.10
2018-12-18T19:44:23.900Z,13.27
2018-12-18T19:46:52.580Z,15.27
2018-12-18T19:49:21.355Z,13.63
2018-12-18T19:51:50.144Z,11.50
2018-12-18T19:54:18.893Z,11.95
2018-12-18T19:56:47.713Z,10.10
2018-12-18T19:59:16.588Z,10.68
2018-12-18T20:01:45.413Z,13.20
2018-12-18T20:04:14.219Z,14.30
2018-12-18T20:06:42.763Z,13.53
2018-12-18T20:09:11.540Z,16.20
2018-12-18T20:11:41.774Z,13.50
2018-12-18T20:14:10.532Z,16.23
2018-12-18T20:16:39.289Z,13.73
2018-12-18T20:19:08.048Z,12.27
2018-12-18T20:21:36.909Z,15.27
2018-12-18T20:24:05.644Z,13.37
2018-12-18T20:26:34.473Z,12.83
2018-12-18T20:29:03.368Z,11.93
2018-12-18T20:31:31.975Z,12.00
2018-12-18T20:34:00.589Z,10.30
2018-12-18T20:36:29.043Z,11.33
2018-12-18T20:38:57.676Z,9.70
2018-12-18T20:41:26.424Z,15.63
2018-12-18T20:43:55.212Z,11.93
2018-12-18T20:46:24.020Z,10.53
2018-12-18T20:48:52.536Z,11.93
2018-12-18T20:51:21.221Z,15.50
2018-12-18T20:53:49.836Z,12.68
2018-12-18T20:56:18.461Z,12.67
2018-12-18T20:58:47.285Z,12.35
2018-12-18T21:01:16.056Z,12.30
2018-12-18T21:03:44.817Z,11.17
2018-12-18T21:06:13.777Z,13.13
2018-12-18T21:08:42.701Z,15.07
2018-12-18T21:11:11.604Z,14.80
2018-12-18T21:13:40.538Z,14.90
2018-12-18T21:16:09.521Z,20.17
2018-12-18T21:18:39.152Z,16.62
2018-12-18T21:21:07.977Z,18.60
2018-12-18T21:23:36.969Z,18.60
2018-12-18T21:26:05.895Z,13.83
2018-12-18T21:28:34.917Z,13.90
2018-12-18T21:31:03.898Z,12.50
2018-12-18T21:33:33.384Z,14.33
2018-12-18T21:36:03.592Z,11.10
2018-12-18T21:38:32.606Z,10.67
2018-12-18T21:41:01.524Z,12.63
2018-12-18T21:43:31.542Z,11.63
2018-12-18T21:46:00.487Z,13.43
2018-12-18T21:48:29.540Z,12.85
2018-12-18T21:50:58.456Z,12.70
2018-12-18T21:53:27.126Z,11.57
2018-12-18T21:55:55.945Z,12.10
2018-12-18T21:58:24.868Z,14.67
2018-12-18T22:00:53.856Z,15.97
2018-12-18T22:03:22.788Z,13.57
2018-12-18T22:05:51.716Z,14.70
2018-12-18T22:08:20.632Z,14.68
2018-12-18T22:10:49.544Z,12.23
2018-12-18T22:13:18.452Z,9.75
2018-12-18T22:15:47.366Z,10.63
2018-12-18T22:18:16.276Z,7.35
2018-12-18T22:20:45.185Z,10.50
2018-12-18T22:23:14.864Z,7.47
2018-12-18T22:25:43.671Z,9.17
2018-12-18T22:28:12.444Z,7.30
2018-12-18T22:30:41.147Z,8.50
2018-12-18T22:33:09.920Z,6.03
2018-12-18T22:35:38.768Z,6.83
2018-12-18T22:43:11.485Z,5.23
2018-12-18T22:45:40.308Z,6.70
2018-12-18T22:48:09.873Z,6.53
2018-12-18T22:50:38.485Z,8.40
2018-12-18T22:53:08.188Z,6.62
2018-12-18T22:55:36.878Z,7.67
2018-12-18T22:58:06.308Z,8.33
2018-12-18T23:00:40.448Z,8.90
2018-12-18T23:03:11.000Z,7.17
2018-12-18T23:05:40.036Z,6.80
2018-12-18T23:08:08.808Z,8.30
2018-12-18T23:10:37.661Z,7.00
2018-12-18T23:13:06.553Z,7.00
2018-12-18T23:15:35.316Z,5.83
2018-12-18T23:18:04.184Z,8.30
2018-12-18T23:20:32.917Z,5.53
2018-12-18T23:23:01.459Z,5.58
2018-12-18T23:25:29.911Z,4.87
2018-12-18T23:27:58.629Z,7.10
2018-12-18T23:30:27.191Z,7.27
2018-12-18T23:32:55.877Z,5.37
2018-12-18T23:35:24.728Z,6.10
2018-12-18T23:37:53.556Z,7.40
2018-12-18T23:40:22.248Z,7.70
2018-12-18T23:42:51.040Z,6.33
2018-12-18T23:45:19.860Z,5.47
2018-12-18T23:47:48.437Z,6.13
2018-12-18T23:50:17.141Z,3.80
2018-12-18T23:52:45.842Z,4.30
2018-12-18T23:55:14.678Z,4.97
2018-12-18T23:57:43.384Z,4.87
